createdAt,value
2023-11-01T00:01:34.588Z,24.40
2023-11-01T00:06:38.732Z,24.30
2023-11-01T00:11:44.031Z,24.20
2023-11-01T00:16:48.377Z,24.30
2023-11-01T00:21:52.607Z,24.30
2023-11-01T00:26:56.830Z,24.40
2023-11-01T00:32:01.868Z,24.30
2023-11-01T00:37:09.098Z,24.30
2023-11-01T00:42:13.514Z,24.20
2023-11-01T00:47:21.347Z,24.20
2023-11-01T00:52:25.586Z,24.10
2023-11-01T00:57:29.802Z,23.90
2023-11-01T01:02:41.503Z,24.00
2023-11-01T01:07:48.013Z,23.90
2023-11-01T01:12:53.185Z,23.80
2023-11-01T01:18:00.033Z,23.80
2023-11-01T01:23:13.161Z,23.70
2023-11-01T01:28:17.337Z,23.60
2023-11-01T01:33:21.617Z,23.60
2023-11-01T01:38:25.797Z,23.60
2023-11-01T01:43:29.998Z,23.60
2023-11-01T01:48:36.325Z,23.70
2023-11-01T01:53:43.267Z,23.50
2023-11-01T01:58:49.319Z,23.40
2023-11-01T02:03:53.755Z,23.30
2023-11-01T02:08:59.246Z,23.30
2023-11-01T02:14:03.458Z,23.30
2023-11-01T02:19:11.801Z,23.20
2023-11-01T02:24:15.801Z,23.20
2023-11-01T02:29:23.940Z,23.20
2023-11-01T02:34:28.202Z,23.10
2023-11-01T02:39:33.134Z,23.10
2023-11-01T02:44:38.939Z,23.10
2023-11-01T02:49:43.085Z,23.10
2023-11-01T02:54:47.162Z,23.10
2023-11-01T02:59:51.423Z,23.10
2023-11-01T03:04:55.556Z,23.10
2023-11-01T03:09:59.798Z,23.10
2023-11-01T03:15:05.962Z,23.00
2023-11-01T03:20:12.586Z,23.00
2023-11-01T03:25:17.834Z,23.00
2023-11-01T03:30:23.847Z,23.00
2023-11-01T03:35:29.722Z,23.00
2023-11-01T03:40:33.730Z,23.10
2023-11-01T03:45:41.397Z,23.00
2023-11-01T03:50:45.790Z,23.00
2023-11-01T03:55:50.115Z,22.90
2023-11-01T04:00:58.140Z,22.90
2023-11-01T04:06:02.176Z,22.90
2023-11-01T04:11:06.704Z,22.90
2023-11-01T04:16:10.791Z,22.80
2023-11-01T04:21:15.179Z,22.80
2023-11-01T04:26:20.444Z,22.80
2023-11-01T04:31:26.072Z,22.80
2023-11-01T04:36:30.754Z,22.80
2023-11-01T04:41:34.948Z,22.70
2023-11-01T04:46:39.244Z,22.70
2023-11-01T04:51:45.419Z,22.70
2023-11-01T04:56:49.823Z,22.70
2023-11-01T05:01:57.554Z,22.70
2023-11-01T05:07:02.736Z,22.70
2023-11-01T05:12:07.857Z,22.60
2023-11-01T05:17:12.007Z,22.60
2023-11-01T05:22:16.051Z,22.60
2023-11-01T05:27:21.522Z,22.60
2023-11-01T05:32:34.618Z,22.60
2023-11-01T05:37:41.675Z,22.60
2023-11-01T05:42:47.703Z,22.50
2023-11-01T05:47:53.538Z,22.60
2023-11-01T05:53:04.091Z,22.50
2023-11-01T05:58:09.473Z,22.50
2023-11-01T06:03:13.967Z,22.50
2023-11-01T06:08:18.488Z,22.50
2023-11-01T06:13:23.294Z,22.50
2023-11-01T06:18:27.862Z,22.50
2023-11-01T06:23:31.991Z,22.40
2023-11-01T06:28:36.216Z,22.50
2023-11-01T06:33:40.866Z,22.40
2023-11-01T06:38:45.433Z,22.40
2023-11-01T06:43:52.297Z,22.40
2023-11-01T06:48:56.638Z,22.40
2023-11-01T06:54:01.808Z,22.40
2023-11-01T06:59:05.823Z,22.40
2023-11-01T07:04:11.210Z,22.40
2023-11-01T07:09:15.546Z,22.40
2023-11-01T07:14:20.068Z,22.40
2023-11-01T07:19:24.725Z,22.40
2023-11-01T07:24:28.747Z,22.40
2023-11-01T07:29:33.123Z,22.30
2023-11-01T07:34:37.371Z,22.30
2023-11-01T07:39:41.463Z,22.30
2023-11-01T07:44:45.661Z,22.30
2023-11-01T07:49:51.222Z,22.30
2023-11-01T07:54:57.861Z,22.30
2023-11-01T08:00:02.360Z,22.30
2023-11-01T08:05:09.214Z,22.30
2023-11-01T08:10:14.055Z,22.40
2023-11-01T08:15:18.513Z,22.70
2023-11-01T08:20:26.177Z,23.00
2023-11-01T08:25:30.276Z,23.20
2023-11-01T08:30:34.926Z,23.30
2023-11-01T08:35:39.859Z,23.50
2023-11-01T08:40:43.885Z,23.70
2023-11-01T08:45:48.140Z,23.70
2023-11-01T08:50:52.059Z,23.80
2023-11-01T08:55:57.801Z,23.80
2023-11-01T09:01:02.255Z,24.00
2023-11-01T09:06:06.692Z,24.10
2023-11-01T09:11:10.824Z,24.20
2023-11-01T09:16:14.988Z,24.40
2023-11-01T09:21:20.854Z,24.30
2023-11-01T09:26:25.002Z,24.30
2023-11-01T09:31:29.620Z,24.40
2023-11-01T09:36:33.653Z,24.40
2023-11-01T09:41:52.316Z,24.30
2023-11-01T09:46:58.404Z,24.50
2023-11-01T09:52:04.608Z,24.40
2023-11-01T09:57:14.015Z,24.40
2023-11-01T10:02:18.895Z,24.40
2023-11-01T10:07:23.036Z,24.30
2023-11-01T10:12:27.666Z,24.30
2023-11-01T10:17:32.524Z,24.30
2023-11-01T10:22:36.855Z,24.20
2023-11-01T10:27:43.995Z,24.20
2023-11-01T10:33:01.450Z,24.10
2023-11-01T10:38:05.850Z,24.10
2023-11-01T10:43:13.465Z,24.00
2023-11-01T10:48:18.952Z,24.00
2023-11-01T10:53:24.374Z,23.90
2023-11-01T10:58:30.467Z,23.90
2023-11-01T11:03:56.986Z,23.90
2023-11-01T11:09:24.878Z,24.00
2023-11-01T11:14:52.538Z,24.00
2023-11-01T11:20:18.390Z,24.00
2023-11-01T11:25:47.457Z,24.00
2023-11-01T11:31:07.239Z,23.90
2023-11-01T11:36:13.408Z,24.00
2023-11-01T11:41:33.613Z,24.10
2023-11-01T11:46:42.929Z,24.10
2023-11-01T11:51:52.673Z,24.00
2023-11-01T11:57:02.752Z,24.10
2023-11-01T12:02:08.924Z,24.10
2023-11-01T12:07:20.161Z,24.00
2023-11-01T12:12:28.168Z,24.10
2023-11-01T12:17:33.179Z,24.10
2023-11-01T12:22:45.876Z,24.10
2023-11-01T12:27:52.871Z,24.20
2023-11-01T12:32:57.985Z,24.30
2023-11-01T12:38:03.054Z,24.50
2023-11-01T12:43:13.227Z,24.40
2023-11-01T12:48:17.327Z,24.40
2023-11-01T12:53:22.206Z,24.40
2023-11-01T12:58:26.871Z,24.50
2023-11-01T13:03:31.184Z,24.50
2023-11-01T13:08:35.658Z,24.60
2023-11-01T13:13:39.885Z,24.70
2023-11-01T13:18:44.839Z,24.70
2023-11-01T13:23:50.950Z,24.50
2023-11-01T13:28:55.050Z,24.50
2023-11-01T13:33:59.178Z,24.60
2023-11-01T13:39:03.471Z,24.60
2023-11-01T13:44:07.737Z,24.60
2023-11-01T13:49:12.390Z,24.60
2023-11-01T13:54:16.525Z,24.50
2023-11-01T13:59:25.340Z,24.50
2023-11-01T14:04:29.905Z,24.50
2023-11-01T14:09:38.460Z,24.50
2023-11-01T14:14:43.120Z,24.40
2023-11-01T14:19:47.332Z,24.30
2023-11-01T14:24:52.815Z,24.20
2023-11-01T14:29:57.190Z,24.10
2023-11-01T14:35:01.778Z,24.00
2023-11-01T14:40:08.801Z,24.00
2023-11-01T14:45:13.178Z,24.00
2023-11-01T14:50:17.994Z,24.00
2023-11-01T14:55:22.637Z,24.00
2023-11-01T15:00:26.960Z,23.90
2023-11-01T15:05:32.028Z,23.90
2023-11-01T15:10:36.533Z,23.90
2023-11-01T15:15:41.110Z,23.90
2023-11-01T15:20:45.697Z,23.90
2023-11-01T15:25:50.238Z,23.80
2023-11-01T15:30:57.674Z,23.90
2023-11-01T15:36:02.284Z,23.90
2023-11-01T15:41:06.918Z,23.90
2023-11-01T15:46:11.268Z,23.90
2023-11-01T15:51:15.940Z,23.80
2023-11-01T15:56:19.978Z,23.90
2023-11-01T16:01:24.085Z,23.90
2023-11-01T16:06:29.213Z,23.80
2023-11-01T16:11:34.122Z,23.80
2023-11-01T16:16:39.238Z,23.70
2023-11-01T16:21:45.221Z,23.70
2023-11-01T16:26:49.300Z,23.60
2023-11-01T16:31:55.048Z,23.60
2023-11-01T16:37:01.186Z,23.50
2023-11-01T16:42:07.068Z,23.40
2023-11-01T16:47:12.079Z,23.50
2023-11-01T16:52:17.481Z,23.40
2023-11-01T16:57:22.844Z,23.40
2023-11-01T17:02:31.431Z,23.40
2023-11-01T17:07:39.724Z,23.40
2023-11-01T17:12:46.900Z,23.40
2023-11-01T17:17:53.678Z,23.50
2023-11-01T17:23:05.990Z,23.50
2023-11-01T17:28:23.079Z,23.50
2023-11-01T17:33:39.024Z,23.40
2023-11-01T17:38:45.195Z,23.40
2023-11-01T17:43:55.108Z,23.30
2023-11-01T17:49:02.684Z,23.30
2023-11-01T17:54:11.250Z,23.30
2023-11-01T17:59:15.327Z,23.20
2023-11-01T18:04:24.216Z,23.20
2023-11-01T18:09:29.821Z,23.10
2023-11-01T18:14:35.571Z,23.10
2023-11-01T18:19:46.880Z,23.10
2023-11-01T18:24:53.185Z,23.10
2023-11-01T18:29:58.428Z,23.10
2023-11-01T18:35:06.040Z,23.00
2023-11-01T18:40:16.486Z,23.00
2023-11-01T18:45:23.266Z,23.00
2023-11-01T18:50:30.231Z,23.00
2023-11-01T18:55:37.156Z,23.00
2023-11-01T19:00:43.380Z,23.00
2023-11-01T19:05:50.815Z,23.00
2023-11-01T19:10:57.693Z,22.90
2023-11-01T19:16:13.779Z,22.90
2023-11-01T19:21:18.535Z,22.90
2023-11-01T19:26:25.386Z,22.90
2023-11-01T19:31:31.018Z,23.00
2023-11-01T19:36:36.227Z,23.10
2023-11-01T19:41:41.564Z,23.30
2023-11-01T19:46:48.784Z,23.30
2023-11-01T19:51:54.838Z,23.30
2023-11-01T19:57:00.836Z,23.40
2023-11-01T20:02:08.643Z,23.40
2023-11-01T20:07:12.863Z,23.30
2023-11-01T20:12:17.830Z,23.30
2023-11-01T20:17:22.361Z,23.30
2023-11-01T20:22:27.176Z,23.30
2023-11-01T20:27:31.246Z,23.30
2023-11-01T20:32:36.826Z,23.30
2023-11-01T20:37:42.991Z,23.40
2023-11-01T20:42:48.114Z,23.40
2023-11-01T20:47:52.631Z,23.40
2023-11-01T20:52:56.924Z,23.30
2023-11-01T20:58:01.311Z,23.20
2023-11-01T21:03:07.002Z,23.30
2023-11-01T21:08:12.251Z,23.30
2023-11-01T21:13:17.982Z,23.30
2023-11-01T21:18:23.527Z,23.30
2023-11-01T21:23:31.805Z,23.40
2023-11-01T21:28:38.148Z,23.40
2023-11-01T21:33:47.007Z,23.50
2023-11-01T21:38:58.809Z,23.40
2023-11-01T21:44:02.731Z,23.40
2023-11-01T21:49:20.545Z,23.30
2023-11-01T21:54:26.304Z,23.30
2023-11-01T21:59:30.999Z,23.30
2023-11-01T22:04:38.667Z,23.40
2023-11-01T22:09:42.847Z,23.40
2023-11-01T22:14:48.103Z,23.20
2023-11-01T22:19:53.629Z,23.20
2023-11-01T22:25:01.366Z,23.20
2023-11-01T22:30:07.770Z,23.30
2023-11-01T22:35:12.345Z,23.10
2023-11-01T22:40:17.483Z,23.10
2023-11-01T22:45:22.564Z,23.10
2023-11-01T22:50:26.681Z,23.10
2023-11-01T22:55:40.920Z,23.20
2023-11-01T23:00:46.788Z,23.30
2023-11-01T23:05:51.639Z,23.30
2023-11-01T23:10:56.002Z,23.20
2023-11-01T23:16:00.254Z,23.30
2023-11-01T23:21:05.019Z,23.20
2023-11-01T23:26:16.484Z,23.20
2023-11-01T23:31:21.042Z,23.20
2023-11-01T23:36:30.555Z,23.10
2023-11-01T23:41:50.107Z,23.10
2023-11-01T23:46:55.437Z,23.10
2023-11-01T23:52:00.408Z,23.00
2023-11-01T23:57:06.239Z,23.00
